»·PEaware :: N316AL KSNA-KAVX

N316AL :: KSNA-KAVX

FLIGHT INFORMATION

Flight Status: Arrived
Operator: Privately registered:
United States
More flights under this callsign
Pilot: Anonymous 16342 (16342)
Aircraft: Unknown
(EPIC)
More flights by this aircraft type
Origin: KSNA John Wayne-Orange Co
United States
Destination: KAVX Catalina
United States
More flights between these airports :: More routes between these airports
Route: +CHANL3 SXC
File this flight plan on PilotEdge
Remarks: I-7 attempt
Altitude:
(Current/Filed)
4,000ft
Speed:
(Current/Filed)
180kts
Departed: 01-Jul-18 10:33 AM
Arrived: 01-Jul-18 10:56 AM
Distance/Time
Traveled:
32nm/0:22
Distance/Time
To Go:
Arrived

Flight Plot

Page will automatically refresh every two minutes.

Flight plan parsing failed; only flown route is shown


Map Options




Map Legend


Flown Route
Filed Route
Departure Airport
Arrival Airport
Navaid (VOR, NDB)
Fix

Horizontal Profiles

Position Reports

Time Latitude Longitude Heading Altitude Ground
Speed
01-Jul-18 09:55 33.673390 -117.872556 340 60ft 0kts
01-Jul-18 09:56 33.673390 -117.872556 340 60ft 0kts
01-Jul-18 09:57 33.673390 -117.872556 340 60ft 0kts
01-Jul-18 09:58 33.673390 -117.872556 340 60ft 0kts
01-Jul-18 09:59 33.673390 -117.872556 340 60ft 0kts
01-Jul-18 10:00 33.673390 -117.872556 340 60ft 0kts
01-Jul-18 10:01 33.673390 -117.872556 340 60ft 0kts
01-Jul-18 10:02 33.673390 -117.872556 340 60ft 0kts
01-Jul-18 10:03 33.933535 -118.396943 287 111ft 0kts
01-Jul-18 10:04 33.933535 -118.396943 287 111ft 0kts
01-Jul-18 10:05 33.933535 -118.396943 287 111ft 0kts
01-Jul-18 10:06 33.933535 -118.396943 287 111ft 0kts
01-Jul-18 10:07 33.933535 -118.396943 287 111ft 0kts
01-Jul-18 10:08 33.667180 -117.872123 225 60ft 0kts
01-Jul-18 10:09 33.667180 -117.872123 225 60ft 0kts
01-Jul-18 10:10 33.667180 -117.872123 225 60ft 0kts
01-Jul-18 10:11 33.667180 -117.872123 225 60ft 0kts
01-Jul-18 10:12 33.667180 -117.872123 225 60ft 0kts
01-Jul-18 10:13 33.667180 -117.872123 225 60ft 0kts
01-Jul-18 10:14 33.667180 -117.872123 225 60ft 0kts
01-Jul-18 10:15 33.667180 -117.872123 225 60ft 0kts
01-Jul-18 10:16 33.667180 -117.872123 225 60ft 0kts
01-Jul-18 10:17 33.667180 -117.872123 225 60ft 0kts
01-Jul-18 10:18 33.667180 -117.872123 225 60ft 0kts
01-Jul-18 10:19 33.667180 -117.872123 225 60ft 0kts
01-Jul-18 10:20 33.667180 -117.872123 225 60ft 0kts
01-Jul-18 10:21 33.667180 -117.872123 225 60ft 0kts
01-Jul-18 10:22 33.667180 -117.872123 225 60ft 0kts
01-Jul-18 10:23 33.667180 -117.872123 225 60ft 0kts
01-Jul-18 10:24 33.667180 -117.872123 225 60ft 0kts
01-Jul-18 10:25 33.667180 -117.872123 225 60ft 0kts
01-Jul-18 10:26 33.667180 -117.872123 225 60ft 0kts
01-Jul-18 10:27 33.667180 -117.872123 225 60ft 0kts
01-Jul-18 10:28 33.667180 -117.872123 225 60ft 0kts
01-Jul-18 10:29 33.667605 -117.872478 42 60ft 15kts
01-Jul-18 10:30 33.672173 -117.868087 27 60ft 22kts
01-Jul-18 10:31 33.677437 -117.864981 28 60ft 29kts
01-Jul-18 10:32 33.679967 -117.863746 299 60ft 0kts
01-Jul-18 10:33 33.662935 -117.874996 207 652ft 159kts
01-Jul-18 10:34 33.619292 -117.891724 188 1855ft 167kts
01-Jul-18 10:35 33.574350 -117.900472 195 3036ft 164kts
01-Jul-18 10:36 33.536943 -117.929606 214 4212ft 163kts
01-Jul-18 10:37 33.499797 -117.959573 214 5400ft 162kts
01-Jul-18 10:38 33.460670 -117.991406 214 6003ft 188kts
01-Jul-18 10:39 33.415498 -118.028126 214 6002ft 200kts
01-Jul-18 10:40 33.369181 -118.065662 214 6007ft 202kts
01-Jul-18 10:41 33.322591 -118.103497 214 6011ft 202kts
01-Jul-18 10:42 33.273074 -118.143686 214 6019ft 223kts
01-Jul-18 10:43 33.247658 -118.200166 292 6022ft 213kts
01-Jul-18 10:44 33.278215 -118.258197 305 6018ft 206kts
01-Jul-18 10:45 33.308304 -118.312501 305 6012ft 173kts
01-Jul-18 10:46 33.332724 -118.357023 305 4962ft 172kts
01-Jul-18 10:47 33.359570 -118.404090 305 4016ft 161kts
01-Jul-18 10:48 33.392606 -118.428065 10 4018ft 150kts
01-Jul-18 10:49 33.431939 -118.413795 18 3884ft 143kts
01-Jul-18 10:50 33.466701 -118.407204 4 3416ft 120kts
01-Jul-18 10:51 33.498785 -118.404132 4 3418ft 115kts
01-Jul-18 10:52 33.519169 -118.423735 239 3423ft 135kts
01-Jul-18 10:53 33.485834 -118.420733 158 2730ft 118kts
01-Jul-18 10:54 33.452258 -118.409619 183 2326ft 149kts
01-Jul-18 10:55 33.418793 -118.405427 101 1819ft 123kts
01-Jul-18 10:56 33.404120 -118.417296 222 1570ft 26kts

Navigation Log

Ident Type
Flight plan parsing failed, navigation log unavailable